createdAt,value
2023-04-24T00:01:46.509Z,54.67
2023-04-24T00:06:43.871Z,55.45
2023-04-24T00:11:37.190Z,55.38
2023-04-24T00:16:37.494Z,54.70
2023-04-24T00:21:31.125Z,53.52
2023-04-24T00:26:24.262Z,54.33
2023-04-24T00:31:17.436Z,54.71
2023-04-24T00:36:12.002Z,53.69
2023-04-24T00:41:05.227Z,53.34
2023-04-24T00:45:58.449Z,53.83
2023-04-24T00:50:51.759Z,53.68
2023-04-24T00:55:46.922Z,53.59
2023-04-24T01:00:40.542Z,53.62
2023-04-24T01:05:34.197Z,53.50
2023-04-24T01:10:29.722Z,53.67
2023-04-24T01:15:24.577Z,53.52
2023-04-24T01:20:19.283Z,53.48
2023-04-24T01:25:13.889Z,53.98
2023-04-24T01:30:08.937Z,53.52
2023-04-24T01:35:02.904Z,53.49
2023-04-24T01:39:56.241Z,54.01
2023-04-24T01:44:51.308Z,54.02
2023-04-24T01:49:44.794Z,53.13
2023-04-24T01:54:39.491Z,53.83
2023-04-24T01:59:35.453Z,53.34
2023-04-24T02:04:30.169Z,53.38
2023-04-24T02:09:24.016Z,53.18
2023-04-24T02:14:17.598Z,53.94
2023-04-24T02:19:10.808Z,53.48
2023-04-24T02:24:05.594Z,54.01
2023-04-24T02:28:58.769Z,53.82
2023-04-24T02:33:51.993Z,54.23
2023-04-24T02:38:45.232Z,54.42
2023-04-24T02:43:41.268Z,54.39
2023-04-24T02:48:34.624Z,54.88
2023-04-24T02:53:27.828Z,55.03
2023-04-24T02:58:21.612Z,55.73
2023-04-24T03:03:16.644Z,57.53
2023-04-24T03:08:09.968Z,58.48
2023-04-24T03:13:03.463Z,59.70
2023-04-24T03:17:57.018Z,60.67
2023-04-24T03:22:51.949Z,60.50
2023-04-24T03:27:45.940Z,62.64
2023-04-24T03:32:54.907Z,63.39
2023-04-24T03:37:54.493Z,64.25
2023-04-24T03:43:06.153Z,65.12
2023-04-24T03:47:59.768Z,65.35
2023-04-24T03:52:55.148Z,64.93
2023-04-24T03:58:00.610Z,65.09
2023-04-24T04:02:54.380Z,64.50
2023-04-24T04:07:48.548Z,66.58
2023-04-24T04:12:44.939Z,66.54
2023-04-24T04:17:41.928Z,67.88
2023-04-24T04:22:35.795Z,67.85
2023-04-24T04:27:35.732Z,67.53
2023-04-24T04:32:36.296Z,69.21
2023-04-24T04:37:32.365Z,66.64
2023-04-24T04:42:37.074Z,66.32
2023-04-24T04:47:33.811Z,66.12
2023-04-24T04:52:31.845Z,65.13
2023-04-24T04:57:46.537Z,65.94
2023-04-24T05:02:43.491Z,65.04
2023-04-24T05:07:39.110Z,63.06
2023-04-24T05:12:32.452Z,64.81
2023-04-24T05:17:29.336Z,63.13
2023-04-24T05:22:25.068Z,61.75
2023-04-24T05:27:21.720Z,61.40
2023-04-24T05:32:16.145Z,61.44
2023-04-24T05:37:11.097Z,59.35
2023-04-24T05:42:05.622Z,61.39
2023-04-24T05:47:00.233Z,61.06
2023-04-24T05:51:53.475Z,58.85
2023-04-24T05:56:47.946Z,58.89
2023-04-24T06:01:50.976Z,59.06
2023-04-24T06:06:51.894Z,58.25
2023-04-24T06:11:45.547Z,58.70
2023-04-24T06:16:41.132Z,60.89
2023-04-24T06:21:58.513Z,55.02
2023-04-24T06:26:52.293Z,53.42
2023-04-24T06:31:45.756Z,53.32
2023-04-24T06:36:39.708Z,50.34
2023-04-24T06:41:34.327Z,50.45
2023-04-24T06:46:29.637Z,49.92
2023-04-24T06:51:22.901Z,49.17
2023-04-24T06:56:16.196Z,48.53
2023-04-24T07:01:10.846Z,51.19
2023-04-24T07:06:04.482Z,50.56
2023-04-24T07:10:57.824Z,49.16
2023-04-24T07:15:52.129Z,50.06
2023-04-24T07:20:47.072Z,49.50
2023-04-24T07:25:40.548Z,51.29
2023-04-24T07:30:34.673Z,50.58
2023-04-24T07:35:29.910Z,50.03
2023-04-24T07:40:29.393Z,50.69
2023-04-24T07:45:24.178Z,50.28
2023-04-24T07:50:17.489Z,50.55
2023-04-24T07:55:10.632Z,52.17
2023-04-24T08:00:06.992Z,50.73
2023-04-24T08:05:05.207Z,48.94
2023-04-24T08:09:58.437Z,47.88
2023-04-24T08:14:51.769Z,45.62
2023-04-24T08:19:49.781Z,48.61
2023-04-24T08:24:43.032Z,47.78
2023-04-24T08:29:36.554Z,44.01
2023-04-24T08:34:29.786Z,44.52
2023-04-24T08:39:24.541Z,39.26
2023-04-24T08:44:18.905Z,41.11
2023-04-24T08:49:13.894Z,37.80
2023-04-24T08:54:12.780Z,38.10
2023-04-24T08:59:08.328Z,33.86
2023-04-24T09:04:04.763Z,34.50
2023-04-24T09:08:59.411Z,33.30
2023-04-24T09:13:53.489Z,30.70
2023-04-24T09:18:48.188Z,30.36
2023-04-24T09:23:41.544Z,28.24
2023-04-24T09:28:37.901Z,30.31
2023-04-24T09:33:32.183Z,31.27
2023-04-24T09:38:35.229Z,29.43
2023-04-24T09:43:29.521Z,30.48
2023-04-24T09:48:32.300Z,32.17
2023-04-24T09:53:28.292Z,30.43
2023-04-24T09:58:28.014Z,30.14
2023-04-24T10:03:28.212Z,32.62
2023-04-24T10:08:22.753Z,33.19
2023-04-24T10:13:17.049Z,31.44
2023-04-24T10:18:13.455Z,30.13
2023-04-24T10:23:07.298Z,31.03
2023-04-24T10:28:02.306Z,30.40
2023-04-24T10:32:55.959Z,31.16
2023-04-24T10:37:53.287Z,30.90
2023-04-24T10:42:50.172Z,32.44
2023-04-24T10:47:43.544Z,30.18
2023-04-24T10:52:46.746Z,29.34
2023-04-24T10:57:41.500Z,29.80
2023-04-24T11:02:39.850Z,29.30
2023-04-24T11:08:13.995Z,25.80
2023-04-24T11:13:12.767Z,24.76
2023-04-24T11:18:11.565Z,24.38
2023-04-24T11:23:07.893Z,26.39
2023-04-24T11:28:07.240Z,23.97
2023-04-24T11:33:06.714Z,24.50
2023-04-24T11:38:22.703Z,24.98
2023-04-24T11:43:20.991Z,27.29
2023-04-24T11:48:22.708Z,28.43
2023-04-24T11:53:17.041Z,27.09
2023-04-24T11:58:10.519Z,25.36
2023-04-24T12:03:09.334Z,25.36
2023-04-24T12:08:07.722Z,24.57
2023-04-24T12:13:11.843Z,27.19
2023-04-24T12:23:19.939Z,29.64
2023-04-24T12:28:15.199Z,30.10
2023-04-24T12:33:11.635Z,32.04
2023-04-24T12:38:09.209Z,35.81
2023-04-24T12:43:06.569Z,33.19
2023-04-24T12:48:03.287Z,32.17
2023-04-24T12:52:57.858Z,33.78
2023-04-24T12:57:56.476Z,31.76
2023-04-24T13:02:52.921Z,33.02
2023-04-24T13:07:46.866Z,33.28
2023-04-24T13:12:40.541Z,33.59
2023-04-24T13:17:35.724Z,33.42
2023-04-24T13:22:32.993Z,30.44
2023-04-24T13:27:26.279Z,29.53
2023-04-24T13:32:19.797Z,26.83
2023-04-24T13:37:13.292Z,27.08
2023-04-24T13:42:09.988Z,26.36
2023-04-24T13:47:03.803Z,27.41
2023-04-24T13:51:57.995Z,25.70
2023-04-24T13:56:53.651Z,27.87
2023-04-24T14:01:50.398Z,30.18
2023-04-24T14:06:43.904Z,30.45
2023-04-24T14:11:37.792Z,32.85
2023-04-24T14:16:31.833Z,33.66
2023-04-24T14:21:36.828Z,35.29
2023-04-24T14:26:30.353Z,35.76
2023-04-24T14:31:23.577Z,37.23
2023-04-24T14:36:20.092Z,36.34
2023-04-24T14:41:24.002Z,35.17
2023-04-24T14:46:17.695Z,36.86
2023-04-24T14:51:11.085Z,37.19
2023-04-24T14:56:09.727Z,37.67
2023-04-24T15:01:06.444Z,37.27
2023-04-24T15:06:06.181Z,38.97
2023-04-24T15:11:00.556Z,38.97
2023-04-24T15:15:56.314Z,38.45
2023-04-24T15:20:50.866Z,39.18
2023-04-24T15:25:44.167Z,39.74
2023-04-24T15:30:37.378Z,40.50
2023-04-24T15:35:32.998Z,39.58
2023-04-24T15:40:31.284Z,38.85
2023-04-24T15:45:27.512Z,39.71
2023-04-24T15:50:22.744Z,40.49
2023-04-24T15:55:16.003Z,40.91
2023-04-24T16:00:12.120Z,41.01
2023-04-24T16:05:07.582Z,40.38
2023-04-24T16:10:04.552Z,41.10
2023-04-24T16:14:58.071Z,40.65
2023-04-24T16:19:55.952Z,40.57
2023-04-24T16:24:49.210Z,41.54
2023-04-24T16:29:42.535Z,41.54
2023-04-24T16:34:35.882Z,41.84
2023-04-24T16:39:30.542Z,42.17
2023-04-24T16:44:23.767Z,42.14
2023-04-24T16:49:18.735Z,42.48
2023-04-24T16:54:12.686Z,42.38
2023-04-24T16:59:07.650Z,41.63
2023-04-24T17:04:04.134Z,41.62
2023-04-24T17:08:57.446Z,42.25
2023-04-24T17:13:50.691Z,43.19
2023-04-24T17:18:45.282Z,42.44
2023-04-24T17:23:38.971Z,43.83
2023-04-24T17:28:33.266Z,43.87
2023-04-24T17:33:26.690Z,45.54
2023-04-24T17:38:21.746Z,48.31
2023-04-24T17:43:18.092Z,49.13
2023-04-24T17:48:11.555Z,48.75
2023-04-24T17:53:05.043Z,51.49
2023-04-24T17:58:01.962Z,51.73
2023-04-24T18:03:00.984Z,51.81
2023-04-24T18:07:54.838Z,51.76
2023-04-24T18:12:49.461Z,51.77
2023-04-24T18:17:44.520Z,51.27
2023-04-24T18:22:38.020Z,52.26
2023-04-24T18:27:31.947Z,51.04
2023-04-24T18:32:28.355Z,52.13
2023-04-24T18:37:22.971Z,53.30
2023-04-24T18:42:16.235Z,53.64
2023-04-24T18:47:10.032Z,53.79
2023-04-24T18:52:03.508Z,53.66
2023-04-24T18:56:58.225Z,54.48
2023-04-24T19:01:51.594Z,54.99
2023-04-24T19:06:44.784Z,56.25
2023-04-24T19:11:37.905Z,56.18
2023-04-24T19:16:33.845Z,57.79
2023-04-24T19:21:27.585Z,57.75
2023-04-24T19:26:24.073Z,56.84
2023-04-24T19:31:21.171Z,56.49
2023-04-24T19:36:19.005Z,57.32
2023-04-24T19:41:12.455Z,56.82
2023-04-24T19:46:09.757Z,58.37
2023-04-24T19:51:13.488Z,58.58
2023-04-24T19:56:09.307Z,59.48
2023-04-24T20:01:06.373Z,61.25
2023-04-24T20:05:59.630Z,61.70
2023-04-24T20:10:54.661Z,62.75
2023-04-24T20:15:49.616Z,63.34
2023-04-24T20:20:46.759Z,65.53
2023-04-24T20:25:40.466Z,65.19
2023-04-24T20:30:38.086Z,66.02
2023-04-24T20:35:35.306Z,66.82
2023-04-24T20:40:35.513Z,65.66
2023-04-24T20:45:31.282Z,63.25
2023-04-24T20:50:30.656Z,61.46
2023-04-24T20:55:25.764Z,60.38
2023-04-24T21:00:23.951Z,61.44
2023-04-24T21:05:18.619Z,63.02
2023-04-24T21:10:16.658Z,64.51
2023-04-24T21:15:12.129Z,66.26
2023-04-24T21:20:06.391Z,67.40
2023-04-24T21:25:01.216Z,68.67
2023-04-24T21:29:56.942Z,69.42
2023-04-24T21:34:51.828Z,70.49
2023-04-24T21:39:46.293Z,71.61
2023-04-24T21:44:39.624Z,72.82
2023-04-24T21:49:34.414Z,72.98
2023-04-24T21:54:32.813Z,74.05
2023-04-24T21:59:26.154Z,74.42
2023-04-24T22:04:19.412Z,75.00
2023-04-24T22:09:12.753Z,75.35
2023-04-24T22:14:07.344Z,75.55
2023-04-24T22:19:00.443Z,76.05
2023-04-24T22:23:53.615Z,76.29
2023-04-24T22:28:48.213Z,76.17
2023-04-24T22:33:43.423Z,77.61
2023-04-24T22:38:36.548Z,76.02
2023-04-24T22:43:29.908Z,75.82
2023-04-24T22:48:23.178Z,75.88
2023-04-24T22:53:17.681Z,75.99
2023-04-24T22:58:10.999Z,76.24
2023-04-24T23:03:04.667Z,77.52
2023-04-24T23:07:58.273Z,79.01
2023-04-24T23:12:52.831Z,80.05
2023-04-24T23:17:45.995Z,78.62
2023-04-24T23:22:41.371Z,80.12
2023-04-24T23:27:34.581Z,80.46
2023-04-24T23:32:29.224Z,80.90
2023-04-24T23:37:22.777Z,82.16
2023-04-24T23:42:15.879Z,82.94
2023-04-24T23:47:09.039Z,84.62
2023-04-24T23:52:03.795Z,85.25
2023-04-24T23:56:57.095Z,85.91
